createdAt,value
2022-08-07T00:02:40.730Z,9.93
2022-08-07T00:04:16.439Z,10.32
2022-08-07T00:06:29.506Z,10.18
2022-08-07T00:08:38.142Z,9.50
2022-08-07T00:10:57.278Z,10.85
2022-08-07T00:13:24.065Z,10.15
2022-08-07T00:15:38.328Z,10.43
2022-08-07T00:17:51.428Z,10.60
2022-08-07T00:20:01.491Z,9.82
2022-08-07T00:22:08.221Z,10.30
2022-08-07T00:24:16.663Z,10.75
2022-08-07T00:26:58.488Z,10.27
2022-08-07T00:28:56.855Z,10.13
2022-08-07T00:31:01.715Z,10.77
2022-08-07T00:33:10.813Z,9.87
2022-08-07T00:35:19.447Z,10.05
2022-08-07T00:37:29.428Z,10.07
2022-08-07T00:39:54.987Z,10.48
2022-08-07T00:42:05.253Z,10.18
2022-08-07T00:44:10.453Z,9.85
2022-08-07T00:46:20.111Z,10.93
2022-08-07T00:48:31.775Z,10.07
2022-08-07T00:50:50.796Z,10.23
2022-08-07T00:52:55.963Z,10.02
2022-08-07T00:55:04.605Z,9.98
2022-08-07T00:57:15.649Z,10.85
2022-08-07T00:59:35.377Z,10.15
2022-08-07T01:01:44.186Z,10.10
2022-08-07T01:03:57.276Z,10.30
2022-08-07T01:06:06.357Z,10.13
2022-08-07T01:08:11.324Z,9.63
2022-08-07T01:10:18.278Z,10.23
2022-08-07T01:12:29.914Z,9.98
2022-08-07T01:14:37.037Z,9.77
2022-08-07T01:16:43.198Z,9.85
2022-08-07T01:18:51.973Z,10.35
2022-08-07T01:21:17.501Z,10.18
2022-08-07T01:23:34.692Z,9.75
2022-08-07T01:25:55.615Z,10.10
2022-08-07T01:28:01.775Z,9.77
2022-08-07T01:30:07.914Z,10.85
2022-08-07T01:32:15.728Z,9.75
2022-08-07T01:34:30.570Z,9.77
2022-08-07T01:36:40.617Z,9.63
2022-08-07T01:38:52.105Z,9.35
2022-08-07T01:41:02.521Z,9.98
2022-08-07T01:43:07.424Z,10.38
2022-08-07T01:45:18.239Z,10.15
2022-08-07T01:48:19.126Z,10.13
2022-08-07T01:49:54.600Z,10.48
2022-08-07T01:52:05.303Z,11.00
2022-08-07T01:54:22.026Z,10.43
2022-08-07T01:56:49.301Z,11.52
2022-08-07T01:58:59.834Z,10.43
2022-08-07T02:03:42.700Z,10.10
2022-08-07T02:05:59.609Z,11.52
2022-08-07T02:08:13.937Z,10.80
2022-08-07T02:10:24.285Z,11.20
2022-08-07T02:12:31.849Z,11.90
2022-08-07T02:14:40.727Z,11.60
2022-08-07T02:16:54.700Z,12.35
2022-08-07T02:19:00.109Z,13.05
2022-08-07T02:21:06.959Z,12.90
2022-08-07T02:23:17.040Z,14.25
2022-08-07T02:25:32.117Z,13.32
2022-08-07T02:27:58.202Z,13.35
2022-08-07T02:30:07.049Z,12.38
2022-08-07T02:32:14.709Z,13.40
2022-08-07T02:34:21.009Z,13.55
2022-08-07T02:38:50.651Z,14.60
2022-08-07T02:41:04.086Z,13.20
2022-08-07T02:43:11.246Z,14.68
2022-08-07T02:45:59.145Z,13.60
2022-08-07T02:47:49.077Z,13.27
2022-08-07T02:49:56.237Z,12.35
2022-08-07T02:52:07.580Z,12.27
2022-08-07T02:54:18.416Z,13.00
2022-08-07T02:56:24.852Z,12.75
2022-08-07T02:58:33.938Z,11.93
2022-08-07T03:00:46.616Z,12.05
2022-08-07T03:02:54.950Z,12.50
2022-08-07T03:05:05.047Z,12.07
2022-08-07T03:07:13.050Z,12.55
2022-08-07T03:11:51.881Z,12.27
2022-08-07T03:14:05.739Z,11.88
2022-08-07T03:16:10.855Z,11.68
2022-08-07T03:18:20.273Z,12.60
2022-08-07T03:20:29.379Z,12.18
2022-08-07T03:22:35.271Z,11.65
2022-08-07T03:24:41.108Z,11.43
2022-08-07T03:26:51.385Z,11.90
2022-08-07T03:29:05.235Z,11.45
2022-08-07T03:31:26.149Z,11.50
2022-08-07T03:33:47.556Z,11.65
2022-08-07T03:35:53.924Z,11.05
2022-08-07T03:38:04.789Z,11.45
2022-08-07T03:42:22.353Z,11.57
2022-08-07T03:44:34.449Z,11.75
2022-08-07T03:47:10.922Z,11.25
2022-08-07T03:49:06.631Z,11.35
2022-08-07T03:51:20.755Z,10.75
2022-08-07T03:54:01.751Z,10.90
2022-08-07T03:56:04.008Z,11.18
2022-08-07T03:59:04.934Z,10.32
2022-08-07T04:00:36.916Z,10.85
2022-08-07T04:02:43.222Z,12.00
2022-08-07T04:05:00.554Z,10.93
2022-08-07T04:07:17.313Z,10.48
2022-08-07T04:09:24.619Z,11.60
2022-08-07T04:12:24.184Z,10.68
2022-08-07T04:14:10.582Z,11.02
2022-08-07T04:16:31.547Z,11.80
2022-08-07T04:18:59.182Z,11.38
2022-08-07T04:21:04.361Z,11.82
2022-08-07T04:23:19.397Z,11.32
2022-08-07T04:25:29.276Z,12.10
2022-08-07T04:27:46.020Z,13.13
2022-08-07T04:30:04.985Z,12.38
2022-08-07T04:34:40.932Z,11.10
2022-08-07T04:36:49.524Z,11.07
2022-08-07T04:38:54.873Z,12.00
2022-08-07T04:40:59.382Z,11.82
2022-08-07T04:43:20.958Z,11.05
2022-08-07T04:45:52.119Z,11.57
2022-08-07T04:48:10.693Z,11.00
2022-08-07T04:50:23.724Z,12.32
2022-08-07T04:52:52.852Z,12.35
2022-08-07T04:55:14.882Z,11.65
2022-08-07T04:58:10.762Z,12.63
2022-08-07T05:00:30.077Z,11.05
2022-08-07T05:02:44.114Z,11.65
2022-08-07T05:04:57.378Z,11.60
2022-08-07T05:07:20.488Z,10.85
2022-08-07T05:09:46.282Z,11.23
2022-08-07T05:11:58.043Z,11.25
2022-08-07T05:14:52.440Z,11.70
2022-08-07T05:16:43.975Z,12.63
2022-08-07T05:18:56.024Z,11.35
2022-08-07T05:21:04.111Z,10.50
2022-08-07T05:23:16.357Z,11.55
2022-08-07T05:25:35.602Z,10.20
2022-08-07T05:28:05.977Z,11.13
2022-08-07T05:30:10.581Z,11.20
2022-08-07T05:32:19.929Z,10.63
2022-08-07T05:34:26.162Z,11.05
2022-08-07T05:36:35.699Z,10.45
2022-08-07T05:39:00.332Z,9.60
2022-08-07T05:41:13.991Z,9.93
2022-08-07T05:43:43.402Z,10.57
2022-08-07T05:46:03.159Z,10.80
2022-08-07T05:48:11.409Z,10.48
2022-08-07T05:50:20.060Z,10.55
2022-08-07T05:52:32.442Z,10.23
2022-08-07T05:54:53.124Z,10.90
2022-08-07T05:57:03.495Z,10.20
2022-08-07T05:59:15.223Z,10.10
2022-08-07T06:01:23.160Z,10.18
2022-08-07T06:03:53.908Z,11.25
2022-08-07T06:06:01.678Z,10.20
2022-08-07T06:08:30.170Z,10.27
2022-08-07T06:10:32.687Z,10.65
2022-08-07T06:12:38.180Z,11.38
2022-08-07T06:14:49.278Z,11.85
2022-08-07T06:16:57.148Z,10.50
2022-08-07T06:19:17.847Z,10.88
2022-08-07T06:22:14.806Z,10.43
2022-08-07T06:24:53.032Z,11.20
2022-08-07T06:26:14.561Z,10.45
2022-08-07T06:28:27.608Z,10.20
2022-08-07T06:30:42.753Z,10.60
2022-08-07T06:32:54.974Z,11.32
2022-08-07T06:35:01.288Z,10.60
2022-08-07T06:37:06.152Z,11.23
2022-08-07T06:40:13.298Z,11.23
2022-08-07T06:42:00.658Z,11.27
2022-08-07T06:44:44.902Z,11.40
2022-08-07T06:47:10.104Z,11.10
2022-08-07T06:49:19.167Z,10.57
2022-08-07T06:51:33.546Z,10.57
2022-08-07T06:55:30.264Z,10.48
2022-08-07T06:56:15.306Z,10.57
2022-08-07T06:58:24.498Z,10.70
2022-08-07T07:00:44.237Z,11.65
2022-08-07T07:03:01.239Z,10.45
2022-08-07T07:06:02.926Z,10.45
2022-08-07T07:08:25.684Z,10.00
2022-08-07T07:10:54.738Z,10.80
2022-08-07T07:13:43.706Z,10.38
2022-08-07T07:16:10.413Z,11.57
2022-08-07T07:18:47.125Z,10.32
2022-08-07T07:21:03.927Z,10.98
2022-08-07T07:24:10.028Z,10.60
2022-08-07T07:26:35.940Z,10.70
2022-08-07T07:29:40.717Z,10.93
2022-08-07T07:31:39.819Z,10.70
2022-08-07T07:34:15.561Z,10.10
2022-08-07T07:36:33.633Z,11.18
2022-08-07T07:38:48.958Z,9.52
2022-08-07T07:41:08.578Z,9.65
2022-08-07T07:43:18.817Z,9.65
2022-08-07T07:46:35.675Z,10.93
2022-08-07T07:47:59.353Z,11.13
2022-08-07T07:50:33.456Z,10.75
2022-08-07T07:52:37.865Z,10.30
2022-08-07T07:54:51.302Z,9.70
2022-08-07T07:56:58.550Z,10.80
2022-08-07T07:59:07.060Z,10.18
2022-08-07T08:02:01.850Z,10.30
2022-08-07T08:04:09.986Z,10.30
2022-08-07T08:06:11.596Z,8.95
2022-08-07T08:08:35.584Z,9.55
2022-08-07T08:10:46.431Z,11.15
2022-08-07T08:12:59.679Z,10.20
2022-08-07T08:15:06.983Z,9.60
2022-08-07T08:17:56.265Z,10.15
2022-08-07T08:20:17.523Z,10.90
2022-08-07T08:22:32.565Z,9.45
2022-08-07T08:25:18.232Z,10.30
2022-08-07T08:27:33.686Z,10.55
2022-08-07T08:29:54.108Z,9.88
2022-08-07T08:32:17.800Z,9.45
2022-08-07T08:34:26.969Z,9.27
2022-08-07T08:36:40.039Z,11.00
2022-08-07T08:39:05.528Z,10.55
2022-08-07T08:41:56.877Z,10.85
2022-08-07T08:44:17.432Z,10.13
2022-08-07T08:46:53.040Z,10.18
2022-08-07T08:49:06.728Z,9.98
2022-08-07T08:52:01.046Z,10.23
2022-08-07T08:54:00.053Z,10.07
2022-08-07T08:56:12.424Z,10.63
2022-08-07T08:58:28.517Z,10.30
2022-08-07T09:00:48.596Z,10.77
2022-08-07T09:03:49.406Z,10.68
2022-08-07T09:06:04.475Z,10.77
2022-08-07T09:08:24.339Z,9.95
2022-08-07T09:10:39.124Z,10.65
2022-08-07T09:12:54.993Z,10.57
2022-08-07T09:16:21.957Z,10.70
2022-08-07T09:17:59.348Z,9.95
2022-08-07T09:20:35.652Z,10.95
2022-08-07T09:24:31.971Z,9.95
2022-08-07T09:25:26.769Z,10.90
2022-08-07T09:28:00.623Z,11.30
2022-08-07T09:30:09.024Z,10.93
2022-08-07T09:32:31.118Z,11.23
2022-08-07T09:34:56.574Z,11.25
2022-08-07T09:37:06.282Z,10.80
2022-08-07T09:39:54.756Z,10.70
2022-08-07T09:42:07.623Z,10.73
2022-08-07T09:44:40.231Z,11.70
2022-08-07T09:47:50.209Z,11.18
2022-08-07T09:50:01.497Z,10.60
2022-08-07T09:52:34.350Z,11.23
2022-08-07T09:54:42.725Z,10.20
2022-08-07T09:57:12.928Z,10.20
2022-08-07T09:59:44.591Z,10.98
2022-08-07T10:02:10.024Z,11.02
2022-08-07T10:04:33.357Z,11.75
2022-08-07T10:07:00.934Z,10.80
2022-08-07T10:10:00.402Z,11.57
2022-08-07T10:12:21.800Z,11.30
2022-08-07T10:15:03.052Z,11.23
2022-08-07T10:17:24.688Z,11.18
2022-08-07T10:20:12.971Z,11.30
2022-08-07T10:22:58.652Z,11.77
2022-08-07T10:25:22.743Z,11.02
2022-08-07T10:27:45.933Z,11.73
2022-08-07T10:30:12.318Z,10.52
2022-08-07T10:32:51.009Z,11.40
2022-08-07T10:35:14.813Z,11.82
2022-08-07T10:38:00.162Z,12.15
2022-08-07T10:40:09.913Z,11.23
2022-08-07T10:42:30.982Z,11.02
2022-08-07T10:44:47.361Z,11.10
2022-08-07T10:47:01.374Z,10.40
2022-08-07T10:49:16.219Z,10.85
2022-08-07T10:51:39.540Z,10.40
2022-08-07T10:54:12.041Z,10.02
2022-08-07T10:56:38.250Z,10.02
2022-08-07T10:59:00.468Z,9.15
2022-08-07T11:01:23.579Z,9.30
2022-08-07T11:03:37.693Z,9.23
2022-08-07T11:05:54.807Z,8.95
2022-08-07T11:08:07.976Z,9.35
2022-08-07T11:10:21.405Z,9.18
2022-08-07T11:12:38.949Z,9.10
2022-08-07T11:14:57.294Z,9.05
2022-08-07T11:17:23.242Z,8.82
2022-08-07T11:19:47.214Z,8.77
2022-08-07T11:22:03.375Z,8.50
2022-08-07T11:24:16.598Z,8.07
2022-08-07T11:26:29.673Z,8.07
2022-08-07T11:28:42.432Z,8.63
2022-08-07T11:30:55.912Z,8.95
2022-08-07T11:33:07.938Z,8.68
2022-08-07T11:35:26.773Z,8.75
2022-08-07T11:38:12.941Z,8.52
2022-08-07T11:40:32.280Z,8.15
2022-08-07T11:42:55.715Z,7.75
2022-08-07T11:45:20.461Z,7.82
2022-08-07T11:47:39.016Z,8.48
2022-08-07T11:50:32.353Z,8.38
2022-08-07T11:53:05.024Z,8.07
2022-08-07T11:56:15.609Z,7.80
2022-08-07T11:57:59.444Z,9.13
2022-08-07T12:00:18.968Z,8.35
2022-08-07T12:02:37.470Z,8.13
2022-08-07T12:05:09.051Z,7.85
2022-08-07T12:07:39.016Z,7.82
2022-08-07T12:09:49.449Z,8.05
2022-08-07T12:12:09.544Z,7.32
2022-08-07T12:14:20.836Z,8.05
2022-08-07T12:16:32.463Z,7.95
2022-08-07T12:18:45.154Z,7.68
2022-08-07T12:20:57.408Z,7.70
2022-08-07T12:24:05.830Z,8.00
2022-08-07T12:26:23.267Z,8.02
2022-08-07T12:28:32.904Z,7.82
2022-08-07T12:30:46.778Z,8.25
2022-08-07T12:33:00.312Z,7.30
2022-08-07T12:35:08.330Z,8.35
2022-08-07T12:37:22.892Z,8.20
2022-08-07T12:39:42.279Z,7.57
2022-08-07T12:41:51.430Z,8.48
2022-08-07T12:44:03.750Z,8.13
2022-08-07T12:46:32.004Z,8.15
2022-08-07T12:48:53.029Z,8.00
2022-08-07T12:51:13.154Z,8.48
2022-08-07T12:54:02.740Z,7.57
2022-08-07T12:56:04.265Z,8.38
2022-08-07T12:58:17.141Z,8.20
2022-08-07T13:00:32.565Z,9.65
2022-08-07T13:03:07.028Z,8.83
2022-08-07T13:06:03.597Z,8.55
2022-08-07T13:08:26.213Z,8.35
2022-08-07T13:10:55.893Z,9.57
2022-08-07T13:13:46.859Z,9.07
2022-08-07T13:15:59.068Z,9.43
2022-08-07T13:18:26.030Z,8.45
2022-08-07T13:20:44.560Z,7.68
2022-08-07T13:22:54.386Z,8.07
2022-08-07T13:25:03.100Z,7.97
2022-08-07T13:27:13.194Z,8.40
2022-08-07T13:29:21.839Z,8.13
2022-08-07T13:31:46.057Z,8.90
2022-08-07T13:34:30.241Z,8.38
2022-08-07T13:36:39.664Z,8.23
2022-08-07T13:38:50.823Z,8.10
2022-08-07T13:41:05.778Z,8.90
2022-08-07T13:43:16.405Z,8.93
2022-08-07T13:46:11.893Z,9.50
2022-08-07T13:48:07.721Z,9.20
2022-08-07T13:50:35.355Z,9.13
2022-08-07T13:52:47.029Z,9.65
2022-08-07T13:54:51.730Z,9.73
2022-08-07T13:57:00.777Z,9.32
2022-08-07T13:59:12.062Z,9.85
2022-08-07T14:01:21.971Z,9.80
2022-08-07T14:04:06.815Z,9.57
2022-08-07T14:06:04.309Z,9.60
2022-08-07T14:08:13.099Z,8.27
2022-08-07T14:10:28.217Z,8.03
2022-08-07T14:12:54.010Z,8.52
2022-08-07T14:15:10.550Z,7.70
2022-08-07T14:18:12.126Z,8.07
2022-08-07T14:20:40.867Z,8.75
2022-08-07T14:22:34.478Z,9.00
2022-08-07T14:24:47.413Z,8.23
2022-08-07T14:26:54.065Z,8.05
2022-08-07T14:29:05.664Z,8.15
2022-08-07T14:31:16.709Z,7.95
2022-08-07T14:33:23.404Z,8.93
2022-08-07T14:35:44.597Z,8.10
2022-08-07T14:38:05.550Z,7.50
2022-08-07T14:40:26.220Z,8.15
2022-08-07T14:43:55.665Z,7.97
2022-08-07T14:45:21.445Z,7.03
2022-08-07T14:47:34.703Z,7.22
2022-08-07T14:49:58.353Z,6.60
2022-08-07T14:52:10.527Z,6.95
2022-08-07T14:54:32.989Z,7.15
2022-08-07T14:56:44.442Z,7.00
2022-08-07T14:58:55.341Z,7.32
2022-08-07T15:01:21.727Z,7.07
2022-08-07T15:03:52.438Z,6.90
2022-08-07T15:06:04.338Z,6.10
2022-08-07T15:08:12.518Z,6.97
2022-08-07T15:12:54.818Z,6.93
2022-08-07T15:15:07.354Z,6.95
2022-08-07T15:17:16.754Z,6.18
2022-08-07T15:20:31.559Z,6.45
2022-08-07T15:22:04.217Z,6.10
2022-08-07T15:25:13.347Z,5.68
2022-08-07T15:26:48.999Z,6.20
2022-08-07T15:30:08.586Z,5.55
2022-08-07T15:34:01.576Z,5.50
2022-08-07T15:36:08.916Z,5.72
2022-08-07T15:38:30.441Z,6.00
2022-08-07T15:40:38.616Z,5.80
2022-08-07T15:43:53.116Z,5.72
2022-08-07T15:45:55.885Z,6.15
2022-08-07T15:48:09.496Z,5.43
2022-08-07T15:51:01.703Z,5.80
2022-08-07T15:52:51.675Z,5.38
2022-08-07T15:55:02.425Z,5.20
2022-08-07T15:57:39.165Z,5.15
2022-08-07T15:59:44.211Z,5.13
2022-08-07T16:02:01.891Z,4.85
2022-08-07T16:04:14.657Z,5.03
2022-08-07T16:06:29.517Z,4.35
2022-08-07T16:08:38.638Z,5.65
2022-08-07T16:10:48.733Z,5.53
2022-08-07T16:13:05.801Z,5.80
2022-08-07T16:15:57.427Z,5.22
2022-08-07T16:18:50.361Z,4.80
2022-08-07T16:22:02.049Z,6.00
2022-08-07T16:23:54.826Z,4.53
2022-08-07T16:26:09.656Z,4.68
2022-08-07T16:29:18.352Z,5.65
2022-08-07T16:31:12.026Z,4.90
2022-08-07T16:34:03.219Z,4.45
2022-08-07T16:36:31.209Z,5.47
2022-08-07T16:39:01.016Z,5.65
2022-08-07T16:41:24.216Z,5.70
2022-08-07T16:44:06.280Z,5.43
2022-08-07T16:50:20.776Z,5.18
2022-08-07T16:52:50.926Z,5.20
2022-08-07T16:54:36.148Z,5.75
2022-08-07T16:57:06.810Z,5.82
2022-08-07T16:59:45.760Z,5.53
2022-08-07T17:02:03.251Z,6.15
2022-08-07T17:04:24.602Z,5.70
2022-08-07T17:07:03.125Z,6.47
2022-08-07T17:10:05.421Z,5.95
2022-08-07T17:12:05.230Z,6.40
2022-08-07T17:14:19.543Z,5.32
2022-08-07T17:16:30.160Z,5.47
2022-08-07T17:18:40.943Z,5.88
2022-08-07T17:20:54.714Z,4.97
2022-08-07T17:23:08.773Z,5.45
2022-08-07T17:25:47.484Z,5.47
2022-08-07T17:27:56.149Z,6.18
2022-08-07T17:30:15.158Z,5.78
2022-08-07T17:32:31.410Z,5.70
2022-08-07T17:35:32.995Z,6.65
2022-08-07T17:38:06.491Z,5.47
2022-08-07T17:39:57.727Z,5.68
2022-08-07T17:42:14.057Z,5.57
2022-08-07T17:44:33.548Z,6.57
2022-08-07T17:46:57.077Z,6.25
2022-08-07T17:49:12.074Z,6.05
2022-08-07T17:51:23.132Z,6.20
2022-08-07T17:54:00.520Z,6.38
2022-08-07T17:56:28.918Z,8.07
2022-08-07T17:58:46.349Z,6.18
2022-08-07T18:00:55.205Z,7.72
2022-08-07T18:03:05.302Z,7.10
2022-08-07T18:05:21.773Z,8.32
2022-08-07T18:07:38.601Z,6.30
2022-08-07T18:10:06.062Z,7.05
2022-08-07T18:12:30.360Z,6.38
2022-08-07T18:14:45.072Z,6.32
2022-08-07T18:16:58.308Z,6.13
2022-08-07T18:21:06.021Z,6.18
2022-08-07T18:22:00.461Z,6.40
2022-08-07T18:24:08.961Z,6.80
2022-08-07T18:26:19.571Z,7.00
2022-08-07T18:28:35.230Z,6.68
2022-08-07T18:30:50.877Z,6.72
2022-08-07T18:33:35.785Z,7.60
2022-08-07T18:35:53.767Z,7.68
2022-08-07T18:38:58.567Z,8.18
2022-08-07T18:41:09.036Z,8.77
2022-08-07T18:43:37.278Z,8.80
2022-08-07T18:46:24.580Z,8.65
2022-08-07T18:49:23.697Z,9.20
2022-08-07T18:51:09.655Z,8.93
2022-08-07T18:53:39.575Z,10.00
2022-08-07T18:55:59.949Z,10.13
2022-08-07T19:00:42.837Z,9.32
2022-08-07T19:03:15.904Z,9.30
2022-08-07T19:06:03.528Z,9.43
2022-08-07T19:08:03.710Z,9.45
2022-08-07T19:10:18.643Z,9.15
2022-08-07T19:12:53.343Z,10.00
2022-08-07T19:16:03.201Z,9.38
2022-08-07T19:18:03.982Z,9.23
2022-08-07T19:20:29.266Z,7.68
2022-08-07T19:22:52.550Z,8.77
2022-08-07T19:25:06.370Z,8.32
2022-08-07T19:29:02.951Z,7.97
2022-08-07T19:31:03.464Z,8.02
2022-08-07T19:32:26.031Z,7.70
2022-08-07T19:34:42.911Z,6.68
2022-08-07T19:39:56.445Z,6.40
2022-08-07T19:42:08.377Z,6.72
2022-08-07T19:44:31.467Z,6.15
2022-08-07T19:46:41.045Z,6.18
2022-08-07T19:49:06.400Z,6.40
2022-08-07T19:51:20.387Z,5.50
2022-08-07T19:54:35.609Z,5.72
2022-08-07T19:57:51.975Z,5.90
2022-08-07T19:58:53.019Z,5.53
2022-08-07T20:01:01.699Z,5.90
2022-08-07T20:03:35.336Z,6.25
2022-08-07T20:05:59.704Z,6.00
2022-08-07T20:08:05.746Z,6.10
2022-08-07T20:10:37.000Z,5.80
2022-08-07T20:12:43.088Z,5.70
2022-08-07T20:14:53.982Z,5.80
2022-08-07T20:17:07.143Z,5.35
2022-08-07T20:19:24.797Z,6.20
2022-08-07T20:21:41.640Z,5.88
2022-08-07T20:23:58.031Z,5.97
2022-08-07T20:26:09.896Z,6.15
2022-08-07T20:28:17.936Z,5.68
2022-08-07T20:32:40.250Z,6.13
2022-08-07T20:34:51.087Z,6.57
2022-08-07T20:36:57.673Z,6.20
2022-08-07T20:39:30.544Z,6.90
2022-08-07T20:41:34.157Z,6.80
2022-08-07T20:43:47.752Z,6.75
2022-08-07T20:46:26.963Z,6.45
2022-08-07T20:48:28.295Z,7.28
2022-08-07T20:50:34.678Z,7.63
2022-08-07T20:52:51.181Z,7.15
2022-08-07T20:54:57.535Z,7.72
2022-08-07T20:57:08.266Z,8.32
2022-08-07T20:59:27.176Z,7.55
2022-08-07T21:01:54.897Z,8.75
2022-08-07T21:04:22.858Z,8.02
2022-08-07T21:06:31.675Z,8.73
2022-08-07T21:10:46.515Z,7.13
2022-08-07T21:12:56.269Z,8.18
2022-08-07T21:15:05.264Z,8.93
2022-08-07T21:18:04.020Z,9.38
2022-08-07T21:19:50.721Z,8.65
2022-08-07T21:21:58.371Z,8.60
2022-08-07T21:24:08.438Z,8.93
2022-08-07T21:26:23.231Z,8.80
2022-08-07T21:28:48.850Z,8.70
2022-08-07T21:31:05.497Z,8.27
2022-08-07T21:33:17.986Z,9.30
2022-08-07T21:35:59.986Z,8.80
2022-08-07T21:38:00.921Z,8.57
2022-08-07T21:40:12.061Z,8.80
2022-08-07T21:42:42.583Z,9.07
2022-08-07T21:44:55.333Z,9.32
2022-08-07T21:47:12.470Z,9.13
2022-08-07T21:49:28.331Z,8.70
2022-08-07T21:51:51.668Z,9.82
2022-08-07T21:54:13.003Z,9.23
2022-08-07T21:56:36.191Z,9.48
2022-08-07T21:58:55.291Z,9.52
2022-08-07T22:01:14.031Z,9.75
2022-08-07T22:03:31.235Z,9.30
2022-08-07T22:05:51.091Z,9.80
2022-08-07T22:07:59.927Z,9.52
2022-08-07T22:10:08.288Z,9.55
2022-08-07T22:12:17.713Z,9.07
2022-08-07T22:14:24.031Z,8.25
2022-08-07T22:16:48.781Z,10.10
2022-08-07T22:19:01.876Z,8.70
2022-08-07T22:21:14.741Z,8.88
2022-08-07T22:23:23.051Z,8.85
2022-08-07T22:25:36.717Z,9.35
2022-08-07T22:28:20.285Z,9.00
2022-08-07T22:30:16.930Z,9.02
2022-08-07T22:32:30.877Z,9.63
2022-08-07T22:34:49.620Z,9.10
2022-08-07T22:37:12.481Z,8.50
2022-08-07T22:39:28.319Z,9.48
2022-08-07T22:42:03.680Z,8.27
2022-08-07T22:44:07.972Z,8.48
2022-08-07T22:46:55.994Z,8.82
2022-08-07T22:49:33.949Z,8.45
2022-08-07T22:51:53.563Z,9.00
2022-08-07T22:54:15.055Z,9.32
2022-08-07T22:56:29.595Z,8.48
2022-08-07T22:58:48.024Z,9.90
2022-08-07T23:01:09.637Z,9.75
2022-08-07T23:03:58.786Z,9.00
2022-08-07T23:06:31.727Z,9.10
2022-08-07T23:08:49.718Z,9.00
2022-08-07T23:11:13.362Z,8.80
2022-08-07T23:13:48.929Z,9.20
2022-08-07T23:16:46.735Z,8.40
2022-08-07T23:19:11.377Z,8.85
2022-08-07T23:21:30.260Z,8.90
2022-08-07T23:24:11.899Z,9.32
2022-08-07T23:26:23.399Z,8.88
2022-08-07T23:29:03.805Z,8.48
2022-08-07T23:32:49.030Z,9.05
2022-08-07T23:34:24.005Z,9.88
2022-08-07T23:37:19.002Z,7.93
2022-08-07T23:39:23.039Z,8.13
2022-08-07T23:41:47.566Z,9.20
2022-08-07T23:46:58.683Z,8.82
2022-08-07T23:49:42.144Z,8.70
2022-08-07T23:53:00.349Z,8.82
2022-08-07T23:54:46.114Z,8.73
2022-08-07T23:56:58.052Z,8.18
